sensor_id;sensor_type;location;lat;lon;timestamp;P1;durP1;ratioP1;P2;durP2;ratioP2
635;SDS011;302;50.206;8.196;2023-06-01T00:01:30;5.78;;;2.58;;
635;SDS011;302;50.206;8.196;2023-06-01T00:04:03;2.47;;;2.28;;
635;SDS011;302;50.206;8.196;2023-06-01T00:06:28;2.40;;;2.17;;
635;SDS011;302;50.206;8.196;2023-06-01T00:08:57;3.05;;;2.60;;
635;SDS011;302;50.206;8.196;2023-06-01T00:11:23;2.13;;;1.92;;
635;SDS011;302;50.206;8.196;2023-06-01T00:13:51;3.95;;;2.70;;
635;SDS011;302;50.206;8.196;2023-06-01T00:16:18;3.28;;;2.97;;
635;SDS011;302;50.206;8.196;2023-06-01T00:18:43;2.77;;;2.37;;
635;SDS011;302;50.206;8.196;2023-06-01T00:21:09;3.95;;;2.28;;
635;SDS011;302;50.206;8.196;2023-06-01T00:23:36;2.37;;;2.17;;
635;SDS011;302;50.206;8.196;2023-06-01T00:28:42;2.20;;;2.00;;
635;SDS011;302;50.206;8.196;2023-06-01T00:31:10;2.83;;;2.53;;
635;SDS011;302;50.206;8.196;2023-06-01T00:33:37;3.35;;;2.60;;
635;SDS011;302;50.206;8.196;2023-06-01T00:36:03;2.95;;;2.65;;
635;SDS011;302;50.206;8.196;2023-06-01T00:38:28;2.83;;;2.57;;
635;SDS011;302;50.206;8.196;2023-06-01T00:40:54;2.27;;;2.13;;
635;SDS011;302;50.206;8.196;2023-06-01T00:43:19;2.40;;;2.20;;
635;SDS011;302;50.206;8.196;2023-06-01T00:45:47;2.50;;;2.30;;
635;SDS011;302;50.206;8.196;2023-06-01T00:48:16;2.25;;;2.05;;
635;SDS011;302;50.206;8.196;2023-06-01T00:50:44;2.40;;;2.20;;
635;SDS011;302;50.206;8.196;2023-06-01T00:53:16;2.53;;;2.23;;
635;SDS011;302;50.206;8.196;2023-06-01T00:55:42;4.35;;;2.58;;
635;SDS011;302;50.206;8.196;2023-06-01T00:58:08;3.03;;;2.53;;
635;SDS011;302;50.206;8.196;2023-06-01T01:00:35;2.43;;;2.23;;
635;SDS011;302;50.206;8.196;2023-06-01T01:03:09;4.45;;;2.75;;
635;SDS011;302;50.206;8.196;2023-06-01T01:05:36;3.10;;;2.80;;
635;SDS011;302;50.206;8.196;2023-06-01T01:10:45;3.15;;;2.85;;
635;SDS011;302;50.206;8.196;2023-06-01T01:18:15;3.07;;;2.77;;
635;SDS011;302;50.206;8.196;2023-06-01T01:20:44;3.33;;;2.67;;
635;SDS011;302;50.206;8.196;2023-06-01T01:31:08;3.08;;;2.78;;
635;SDS011;302;50.206;8.196;2023-06-01T01:33:34;2.60;;;2.40;;
635;SDS011;302;50.206;8.196;2023-06-01T01:36:00;2.80;;;2.50;;
635;SDS011;302;50.206;8.196;2023-06-01T01:38:26;3.93;;;3.20;;
635;SDS011;302;50.206;8.196;2023-06-01T01:40:51;2.73;;;2.53;;
635;SDS011;302;50.206;8.196;2023-06-01T01:43:18;3.75;;;2.95;;
635;SDS011;302;50.206;8.196;2023-06-01T01:45:45;2.65;;;2.45;;
635;SDS011;302;50.206;8.196;2023-06-01T01:48:28;3.08;;;2.50;;
635;SDS011;302;50.206;8.196;2023-06-01T01:50:58;2.58;;;2.33;;
635;SDS011;302;50.206;8.196;2023-06-01T01:53:24;3.45;;;3.03;;
635;SDS011;302;50.206;8.196;2023-06-01T01:55:53;3.00;;;2.40;;
635;SDS011;302;50.206;8.196;2023-06-01T01:58:23;4.93;;;2.80;;
635;SDS011;302;50.206;8.196;2023-06-01T02:00:49;2.60;;;2.40;;
635;SDS011;302;50.206;8.196;2023-06-01T02:03:15;2.90;;;2.57;;
635;SDS011;302;50.206;8.196;2023-06-01T02:05:40;2.85;;;2.65;;
635;SDS011;302;50.206;8.196;2023-06-01T02:08:06;2.83;;;2.30;;
635;SDS011;302;50.206;8.196;2023-06-01T02:10:31;2.63;;;2.43;;
635;SDS011;302;50.206;8.196;2023-06-01T02:12:57;3.35;;;3.00;;
635;SDS011;302;50.206;8.196;2023-06-01T02:15:23;2.37;;;2.17;;
635;SDS011;302;50.206;8.196;2023-06-01T02:17:48;2.58;;;2.38;;
635;SDS011;302;50.206;8.196;2023-06-01T02:20:14;2.77;;;2.47;;
635;SDS011;302;50.206;8.196;2023-06-01T02:22:40;2.70;;;2.50;;
635;SDS011;302;50.206;8.196;2023-06-01T02:27:47;4.72;;;3.30;;
635;SDS011;302;50.206;8.196;2023-06-01T02:30:19;2.97;;;2.65;;
635;SDS011;302;50.206;8.196;2023-06-01T02:32:44;3.03;;;2.77;;
635;SDS011;302;50.206;8.196;2023-06-01T02:35:11;4.78;;;2.90;;
635;SDS011;302;50.206;8.196;2023-06-01T02:37:43;2.75;;;2.55;;
635;SDS011;302;50.206;8.196;2023-06-01T02:43:08;5.75;;;3.00;;
635;SDS011;302;50.206;8.196;2023-06-01T02:45:33;3.27;;;2.97;;
635;SDS011;302;50.206;8.196;2023-06-01T02:47:59;2.50;;;2.30;;
635;SDS011;302;50.206;8.196;2023-06-01T02:50:24;2.60;;;2.40;;
635;SDS011;302;50.206;8.196;2023-06-01T02:52:50;2.63;;;2.43;;
635;SDS011;302;50.206;8.196;2023-06-01T02:55:17;2.65;;;2.45;;
635;SDS011;302;50.206;8.196;2023-06-01T02:57:42;3.20;;;2.90;;
635;SDS011;302;50.206;8.196;2023-06-01T03:00:07;2.50;;;2.30;;
635;SDS011;302;50.206;8.196;2023-06-01T03:02:47;4.25;;;3.10;;
635;SDS011;302;50.206;8.196;2023-06-01T03:05:12;4.05;;;3.75;;
635;SDS011;302;50.206;8.196;2023-06-01T03:07:53;2.80;;;2.60;;
635;SDS011;302;50.206;8.196;2023-06-01T03:11:01;2.45;;;2.25;;
635;SDS011;302;50.206;8.196;2023-06-01T03:13:28;2.90;;;2.60;;
635;SDS011;302;50.206;8.196;2023-06-01T03:16:07;2.95;;;2.67;;
635;SDS011;302;50.206;8.196;2023-06-01T03:18:32;3.20;;;2.40;;
635;SDS011;302;50.206;8.196;2023-06-01T03:20:58;2.13;;;1.93;;
635;SDS011;302;50.206;8.196;2023-06-01T03:23:23;4.70;;;2.97;;
635;SDS011;302;50.206;8.196;2023-06-01T03:25:48;2.50;;;2.30;;
635;SDS011;302;50.206;8.196;2023-06-01T03:28:13;3.60;;;3.03;;
635;SDS011;302;50.206;8.196;2023-06-01T03:30:38;2.70;;;2.50;;
635;SDS011;302;50.206;8.196;2023-06-01T03:33:04;2.95;;;2.75;;
635;SDS011;302;50.206;8.196;2023-06-01T03:35:30;2.80;;;2.55;;
635;SDS011;302;50.206;8.196;2023-06-01T03:37:55;3.73;;;2.77;;
635;SDS011;302;50.206;8.196;2023-06-01T03:40:20;3.33;;;2.50;;
635;SDS011;302;50.206;8.196;2023-06-01T03:42:48;2.27;;;1.90;;
635;SDS011;302;50.206;8.196;2023-06-01T03:45:14;4.43;;;2.47;;
635;SDS011;302;50.206;8.196;2023-06-01T03:47:40;3.33;;;2.92;;
635;SDS011;302;50.206;8.196;2023-06-01T03:50:06;3.53;;;2.80;;
635;SDS011;302;50.206;8.196;2023-06-01T03:52:32;5.35;;;3.20;;
635;SDS011;302;50.206;8.196;2023-06-01T03:54:58;2.60;;;2.40;;
635;SDS011;302;50.206;8.196;2023-06-01T03:57:25;3.53;;;2.80;;
635;SDS011;302;50.206;8.196;2023-06-01T03:59:51;3.33;;;2.50;;
635;SDS011;302;50.206;8.196;2023-06-01T04:02:16;2.60;;;2.27;;
635;SDS011;302;50.206;8.196;2023-06-01T04:04:43;2.33;;;2.05;;
635;SDS011;302;50.206;8.196;2023-06-01T04:07:11;3.00;;;2.58;;
635;SDS011;302;50.206;8.196;2023-06-01T04:09:39;3.03;;;2.25;;
635;SDS011;302;50.206;8.196;2023-06-01T04:12:05;4.27;;;2.20;;
635;SDS011;302;50.206;8.196;2023-06-01T04:14:30;4.00;;;3.00;;
635;SDS011;302;50.206;8.196;2023-06-01T04:16:55;2.60;;;2.40;;
635;SDS011;302;50.206;8.196;2023-06-01T04:19:20;3.30;;;2.67;;
635;SDS011;302;50.206;8.196;2023-06-01T04:21:46;3.00;;;2.73;;
635;SDS011;302;50.206;8.196;2023-06-01T04:24:11;2.50;;;2.30;;
635;SDS011;302;50.206;8.196;2023-06-01T04:26:36;2.43;;;2.23;;
635;SDS011;302;50.206;8.196;2023-06-01T04:29:01;2.80;;;2.47;;
635;SDS011;302;50.206;8.196;2023-06-01T04:31:28;2.95;;;2.65;;
635;SDS011;302;50.206;8.196;2023-06-01T04:33:53;2.60;;;2.40;;
635;SDS011;302;50.206;8.196;2023-06-01T04:36:19;2.43;;;2.23;;
635;SDS011;302;50.206;8.196;2023-06-01T04:42:14;2.95;;;2.47;;
635;SDS011;302;50.206;8.196;2023-06-01T04:44:45;2.50;;;2.30;;
635;SDS011;302;50.206;8.196;2023-06-01T04:47:15;2.80;;;2.50;;
635;SDS011;302;50.206;8.196;2023-06-01T04:49:42;2.70;;;2.50;;
635;SDS011;302;50.206;8.196;2023-06-01T04:52:09;3.30;;;3.00;;
635;SDS011;302;50.206;8.196;2023-06-01T04:54:37;2.80;;;2.60;;
635;SDS011;302;50.206;8.196;2023-06-01T04:57:04;3.83;;;2.63;;
635;SDS011;302;50.206;8.196;2023-06-01T05:02:18;2.72;;;2.40;;
635;SDS011;302;50.206;8.196;2023-06-01T05:04:43;2.80;;;2.60;;
635;SDS011;302;50.206;8.196;2023-06-01T05:07:09;2.97;;;2.77;;
635;SDS011;302;50.206;8.196;2023-06-01T05:09:35;2.50;;;2.30;;
635;SDS011;302;50.206;8.196;2023-06-01T05:12:01;2.80;;;2.45;;
635;SDS011;302;50.206;8.196;2023-06-01T05:14:27;2.70;;;2.50;;
635;SDS011;302;50.206;8.196;2023-06-01T05:16:52;2.87;;;2.67;;
635;SDS011;302;50.206;8.196;2023-06-01T05:19:19;3.10;;;2.90;;
635;SDS011;302;50.206;8.196;2023-06-01T05:21:51;3.10;;;2.50;;
635;SDS011;302;50.206;8.196;2023-06-01T05:24:23;3.22;;;2.70;;
635;SDS011;302;50.206;8.196;2023-06-01T05:26:52;2.70;;;2.28;;
635;SDS011;302;50.206;8.196;2023-06-01T05:29:21;3.08;;;2.85;;
635;SDS011;302;50.206;8.196;2023-06-01T05:31:49;4.38;;;3.05;;
635;SDS011;302;50.206;8.196;2023-06-01T05:36:50;3.17;;;2.90;;
635;SDS011;302;50.206;8.196;2023-06-01T05:39:16;3.40;;;3.10;;
635;SDS011;302;50.206;8.196;2023-06-01T05:41:43;3.70;;;3.20;;
635;SDS011;302;50.206;8.196;2023-06-01T05:44:09;3.50;;;2.83;;
635;SDS011;302;50.206;8.196;2023-06-01T05:46:34;3.20;;;2.90;;
635;SDS011;302;50.206;8.196;2023-06-01T05:49:03;3.33;;;2.80;;
635;SDS011;302;50.206;8.196;2023-06-01T05:51:30;6.03;;;3.00;;
635;SDS011;302;50.206;8.196;2023-06-01T05:53:56;3.13;;;2.80;;
635;SDS011;302;50.206;8.196;2023-06-01T05:56:22;3.17;;;2.88;;
635;SDS011;302;50.206;8.196;2023-06-01T05:58:48;3.73;;;3.43;;
635;SDS011;302;50.206;8.196;2023-06-01T06:01:19;2.85;;;2.63;;
635;SDS011;302;50.206;8.196;2023-06-01T06:03:44;3.50;;;2.80;;
635;SDS011;302;50.206;8.196;2023-06-01T06:06:10;4.13;;;3.57;;
635;SDS011;302;50.206;8.196;2023-06-01T06:08:36;3.50;;;3.20;;
635;SDS011;302;50.206;8.196;2023-06-01T06:11:02;4.40;;;3.20;;
635;SDS011;302;50.206;8.196;2023-06-01T06:13:28;3.07;;;2.60;;
635;SDS011;302;50.206;8.196;2023-06-01T06:15:53;4.43;;;3.00;;
635;SDS011;302;50.206;8.196;2023-06-01T06:18:21;2.90;;;2.38;;
635;SDS011;302;50.206;8.196;2023-06-01T06:20:49;2.65;;;2.42;;
635;SDS011;302;50.206;8.196;2023-06-01T06:23:15;4.33;;;3.00;;
635;SDS011;302;50.206;8.196;2023-06-01T06:25:46;3.05;;;2.60;;
635;SDS011;302;50.206;8.196;2023-06-01T06:28:15;3.28;;;3.00;;
635;SDS011;302;50.206;8.196;2023-06-01T06:30:41;4.03;;;2.88;;
635;SDS011;302;50.206;8.196;2023-06-01T06:33:07;2.95;;;2.67;;
635;SDS011;302;50.206;8.196;2023-06-01T06:35:34;2.83;;;2.63;;
635;SDS011;302;50.206;8.196;2023-06-01T06:38:00;3.92;;;2.85;;
635;SDS011;302;50.206;8.196;2023-06-01T06:40:26;3.60;;;2.95;;
635;SDS011;302;50.206;8.196;2023-06-01T06:42:53;4.00;;;2.90;;
635;SDS011;302;50.206;8.196;2023-06-01T06:45:23;2.90;;;2.70;;
635;SDS011;302;50.206;8.196;2023-06-01T06:47:50;3.67;;;2.70;;
635;SDS011;302;50.206;8.196;2023-06-01T06:50:15;3.37;;;3.07;;
635;SDS011;302;50.206;8.196;2023-06-01T06:52:46;3.10;;;2.80;;
635;SDS011;302;50.206;8.196;2023-06-01T06:55:12;3.40;;;3.10;;
635;SDS011;302;50.206;8.196;2023-06-01T06:57:37;3.30;;;2.43;;
635;SDS011;302;50.206;8.196;2023-06-01T07:00:06;2.90;;;2.55;;
635;SDS011;302;50.206;8.196;2023-06-01T07:02:34;3.20;;;2.70;;
635;SDS011;302;50.206;8.196;2023-06-01T07:05:00;3.03;;;2.83;;
635;SDS011;302;50.206;8.196;2023-06-01T07:07:26;2.72;;;2.30;;
635;SDS011;302;50.206;8.196;2023-06-01T07:12:55;3.10;;;2.38;;
635;SDS011;302;50.206;8.196;2023-06-01T07:15:21;3.35;;;2.45;;
635;SDS011;302;50.206;8.196;2023-06-01T07:17:47;3.58;;;2.80;;
635;SDS011;302;50.206;8.196;2023-06-01T07:20:14;2.78;;;2.58;;
635;SDS011;302;50.206;8.196;2023-06-01T07:25:40;3.33;;;2.00;;
635;SDS011;302;50.206;8.196;2023-06-01T07:28:08;2.47;;;2.28;;
635;SDS011;302;50.206;8.196;2023-06-01T07:30:35;2.85;;;2.65;;
635;SDS011;302;50.206;8.196;2023-06-01T07:33:02;2.83;;;2.53;;
635;SDS011;302;50.206;8.196;2023-06-01T07:35:30;3.20;;;2.90;;
635;SDS011;302;50.206;8.196;2023-06-01T07:40:38;2.65;;;2.30;;
635;SDS011;302;50.206;8.196;2023-06-01T07:43:07;3.40;;;2.60;;
635;SDS011;302;50.206;8.196;2023-06-01T07:45:36;2.60;;;2.38;;
635;SDS011;302;50.206;8.196;2023-06-01T07:48:05;2.70;;;2.50;;
635;SDS011;302;50.206;8.196;2023-06-01T07:50:35;2.90;;;2.70;;
635;SDS011;302;50.206;8.196;2023-06-01T07:53:34;2.47;;;2.28;;
635;SDS011;302;50.206;8.196;2023-06-01T07:56:00;3.92;;;2.53;;
635;SDS011;302;50.206;8.196;2023-06-01T07:58:27;3.27;;;2.10;;
635;SDS011;302;50.206;8.196;2023-06-01T08:00:53;2.00;;;1.90;;
635;SDS011;302;50.206;8.196;2023-06-01T08:03:20;2.60;;;2.40;;
635;SDS011;302;50.206;8.196;2023-06-01T08:05:46;2.58;;;2.38;;
635;SDS011;302;50.206;8.196;2023-06-01T08:08:13;2.70;;;2.50;;
635;SDS011;302;50.206;8.196;2023-06-01T08:10:40;2.97;;;2.78;;
635;SDS011;302;50.206;8.196;2023-06-01T08:13:07;3.83;;;2.37;;
635;SDS011;302;50.206;8.196;2023-06-01T08:21:38;2.42;;;2.22;;
635;SDS011;302;50.206;8.196;2023-06-01T08:24:06;2.30;;;2.08;;
635;SDS011;302;50.206;8.196;2023-06-01T08:26:33;2.20;;;2.00;;
635;SDS011;302;50.206;8.196;2023-06-01T08:29:00;2.80;;;2.35;;
635;SDS011;302;50.206;8.196;2023-06-01T08:31:26;2.53;;;2.30;;
635;SDS011;302;50.206;8.196;2023-06-01T08:39:22;3.55;;;2.10;;
635;SDS011;302;50.206;8.196;2023-06-01T08:44:43;2.30;;;2.10;;
635;SDS011;302;50.206;8.196;2023-06-01T08:53:23;4.07;;;1.80;;
635;SDS011;302;50.206;8.196;2023-06-01T08:58:35;2.65;;;2.45;;
635;SDS011;302;50.206;8.196;2023-06-01T09:01:03;3.25;;;2.10;;
635;SDS011;302;50.206;8.196;2023-06-01T09:03:30;2.30;;;2.10;;
635;SDS011;302;50.206;8.196;2023-06-01T09:05:56;2.10;;;1.90;;
635;SDS011;302;50.206;8.196;2023-06-01T09:08:25;2.25;;;2.05;;
635;SDS011;302;50.206;8.196;2023-06-01T09:10:51;2.55;;;2.00;;
635;SDS011;302;50.206;8.196;2023-06-01T09:13:33;2.53;;;2.30;;
635;SDS011;302;50.206;8.196;2023-06-01T09:15:59;2.22;;;2.03;;
635;SDS011;302;50.206;8.196;2023-06-01T09:18:33;2.25;;;2.05;;
635;SDS011;302;50.206;8.196;2023-06-01T09:21:13;2.08;;;1.95;;
635;SDS011;302;50.206;8.196;2023-06-01T09:23:44;3.00;;;2.22;;
635;SDS011;302;50.206;8.196;2023-06-01T09:26:11;2.45;;;2.20;;
635;SDS011;302;50.206;8.196;2023-06-01T09:28:57;4.32;;;2.10;;
635;SDS011;302;50.206;8.196;2023-06-01T09:31:38;3.80;;;2.70;;
635;SDS011;302;50.206;8.196;2023-06-01T09:34:21;2.60;;;2.40;;
635;SDS011;302;50.206;8.196;2023-06-01T09:36:53;2.78;;;2.28;;
635;SDS011;302;50.206;8.196;2023-06-01T09:39:22;2.30;;;2.10;;
635;SDS011;302;50.206;8.196;2023-06-01T09:41:50;2.55;;;2.35;;
635;SDS011;302;50.206;8.196;2023-06-01T09:44:24;2.30;;;2.10;;
635;SDS011;302;50.206;8.196;2023-06-01T09:49:25;2.10;;;2.00;;
635;SDS011;302;50.206;8.196;2023-06-01T09:51:53;2.30;;;2.10;;
635;SDS011;302;50.206;8.196;2023-06-01T09:54:23;2.88;;;2.30;;
635;SDS011;302;50.206;8.196;2023-06-01T09:56:50;6.05;;;2.20;;
635;SDS011;302;50.206;8.196;2023-06-01T09:59:17;2.45;;;2.25;;
635;SDS011;302;50.206;8.196;2023-06-01T10:01:45;3.10;;;2.40;;
635;SDS011;302;50.206;8.196;2023-06-01T10:04:19;3.10;;;2.90;;
635;SDS011;302;50.206;8.196;2023-06-01T10:06:47;3.15;;;2.35;;
635;SDS011;302;50.206;8.196;2023-06-01T10:09:14;2.67;;;2.30;;
635;SDS011;302;50.206;8.196;2023-06-01T10:11:44;2.65;;;2.45;;
635;SDS011;302;50.206;8.196;2023-06-01T10:14:11;3.58;;;2.70;;
635;SDS011;302;50.206;8.196;2023-06-01T10:16:39;2.97;;;2.20;;
635;SDS011;302;50.206;8.196;2023-06-01T10:19:07;2.17;;;1.90;;
635;SDS011;302;50.206;8.196;2023-06-01T10:21:33;3.15;;;2.35;;
635;SDS011;302;50.206;8.196;2023-06-01T10:24:02;2.33;;;2.13;;
635;SDS011;302;50.206;8.196;2023-06-01T10:26:36;5.15;;;3.28;;
635;SDS011;302;50.206;8.196;2023-06-01T10:29:04;2.40;;;2.07;;
635;SDS011;302;50.206;8.196;2023-06-01T10:31:37;3.07;;;2.80;;
635;SDS011;302;50.206;8.196;2023-06-01T10:34:09;2.50;;;2.30;;
635;SDS011;302;50.206;8.196;2023-06-01T10:39:26;2.20;;;2.00;;
635;SDS011;302;50.206;8.196;2023-06-01T10:41:55;2.70;;;2.23;;
635;SDS011;302;50.206;8.196;2023-06-01T10:52:23;2.70;;;2.13;;
635;SDS011;302;50.206;8.196;2023-06-01T10:54:49;2.90;;;2.50;;
635;SDS011;302;50.206;8.196;2023-06-01T10:57:23;4.03;;;1.97;;
635;SDS011;302;50.206;8.196;2023-06-01T11:13:23;2.50;;;2.30;;
635;SDS011;302;50.206;8.196;2023-06-01T11:18:47;2.50;;;2.30;;
635;SDS011;302;50.206;8.196;2023-06-01T11:23:59;2.60;;;2.40;;
635;SDS011;302;50.206;8.196;2023-06-01T11:26:32;2.33;;;2.13;;
635;SDS011;302;50.206;8.196;2023-06-01T11:29:21;3.63;;;2.70;;
635;SDS011;302;50.206;8.196;2023-06-01T11:31:47;2.63;;;2.43;;
635;SDS011;302;50.206;8.196;2023-06-01T11:34:14;3.17;;;2.13;;
635;SDS011;302;50.206;8.196;2023-06-01T11:36:41;2.80;;;2.50;;
635;SDS011;302;50.206;8.196;2023-06-01T11:39:22;2.47;;;2.23;;
635;SDS011;302;50.206;8.196;2023-06-01T11:42:02;2.43;;;2.10;;
635;SDS011;302;50.206;8.196;2023-06-01T11:44:32;2.83;;;2.53;;
635;SDS011;302;50.206;8.196;2023-06-01T11:46:59;2.47;;;2.20;;
635;SDS011;302;50.206;8.196;2023-06-01T11:49:29;3.13;;;2.63;;
635;SDS011;302;50.206;8.196;2023-06-01T11:51:56;2.77;;;2.50;;
635;SDS011;302;50.206;8.196;2023-06-01T11:54:25;2.97;;;2.60;;
635;SDS011;302;50.206;8.196;2023-06-01T11:56:53;3.30;;;3.03;;
635;SDS011;302;50.206;8.196;2023-06-01T11:59:22;2.73;;;2.10;;
635;SDS011;302;50.206;8.196;2023-06-01T12:01:50;2.90;;;2.60;;
635;SDS011;302;50.206;8.196;2023-06-01T12:04:21;2.40;;;2.20;;
635;SDS011;302;50.206;8.196;2023-06-01T12:06:49;3.13;;;2.30;;
635;SDS011;302;50.206;8.196;2023-06-01T12:09:19;3.00;;;2.40;;
635;SDS011;302;50.206;8.196;2023-06-01T12:11:46;3.10;;;2.90;;
635;SDS011;302;50.206;8.196;2023-06-01T12:14:16;2.83;;;2.63;;
635;SDS011;302;50.206;8.196;2023-06-01T12:16:58;2.77;;;2.43;;
635;SDS011;302;50.206;8.196;2023-06-01T12:19:26;3.57;;;2.67;;
635;SDS011;302;50.206;8.196;2023-06-01T12:21:56;3.03;;;2.70;;
635;SDS011;302;50.206;8.196;2023-06-01T12:24:31;2.70;;;2.50;;
635;SDS011;302;50.206;8.196;2023-06-01T12:27:00;2.97;;;2.40;;
635;SDS011;302;50.206;8.196;2023-06-01T12:29:36;2.60;;;2.40;;
635;SDS011;302;50.206;8.196;2023-06-01T12:32:04;2.70;;;2.50;;
635;SDS011;302;50.206;8.196;2023-06-01T12:34:31;3.10;;;2.40;;
635;SDS011;302;50.206;8.196;2023-06-01T12:36:57;2.87;;;2.13;;
635;SDS011;302;50.206;8.196;2023-06-01T12:39:32;3.03;;;2.27;;
635;SDS011;302;50.206;8.196;2023-06-01T12:44:45;2.20;;;2.00;;
635;SDS011;302;50.206;8.196;2023-06-01T12:47:11;2.47;;;2.27;;
635;SDS011;302;50.206;8.196;2023-06-01T12:49:38;2.63;;;2.30;;
635;SDS011;302;50.206;8.196;2023-06-01T12:52:06;2.63;;;2.30;;
635;SDS011;302;50.206;8.196;2023-06-01T12:54:33;2.67;;;2.47;;
635;SDS011;302;50.206;8.196;2023-06-01T12:57:01;2.67;;;2.10;;
635;SDS011;302;50.206;8.196;2023-06-01T12:59:27;2.70;;;2.43;;
635;SDS011;302;50.206;8.196;2023-06-01T13:01:55;2.63;;;2.43;;
635;SDS011;302;50.206;8.196;2023-06-01T13:04:21;2.23;;;1.90;;
635;SDS011;302;50.206;8.196;2023-06-01T13:06:47;2.77;;;2.57;;
635;SDS011;302;50.206;8.196;2023-06-01T13:09:13;3.07;;;2.77;;
635;SDS011;302;50.206;8.196;2023-06-01T13:11:39;2.87;;;2.67;;
635;SDS011;302;50.206;8.196;2023-06-01T13:14:05;2.83;;;2.57;;
635;SDS011;302;50.206;8.196;2023-06-01T13:16:32;2.60;;;2.40;;
635;SDS011;302;50.206;8.196;2023-06-01T13:18:57;2.53;;;2.33;;
635;SDS011;302;50.206;8.196;2023-06-01T13:21:23;3.50;;;2.40;;
635;SDS011;302;50.206;8.196;2023-06-01T13:23:48;3.90;;;2.87;;
635;SDS011;302;50.206;8.196;2023-06-01T13:26:14;2.67;;;2.47;;
635;SDS011;302;50.206;8.196;2023-06-01T13:28:40;2.70;;;2.50;;
635;SDS011;302;50.206;8.196;2023-06-01T13:31:05;2.70;;;2.17;;
635;SDS011;302;50.206;8.196;2023-06-01T13:33:31;2.10;;;2.00;;
635;SDS011;302;50.206;8.196;2023-06-01T13:35:57;2.20;;;2.00;;
635;SDS011;302;50.206;8.196;2023-06-01T13:38:23;3.03;;;2.83;;
635;SDS011;302;50.206;8.196;2023-06-01T13:40:48;3.07;;;2.87;;
635;SDS011;302;50.206;8.196;2023-06-01T13:43:13;2.90;;;2.40;;
635;SDS011;302;50.206;8.196;2023-06-01T13:45:39;2.90;;;2.70;;
635;SDS011;302;50.206;8.196;2023-06-01T13:48:04;3.27;;;2.97;;
635;SDS011;302;50.206;8.196;2023-06-01T13:50:30;2.90;;;2.70;;
635;SDS011;302;50.206;8.196;2023-06-01T13:52:56;3.43;;;3.17;;
635;SDS011;302;50.206;8.196;2023-06-01T13:55:21;2.90;;;2.70;;
635;SDS011;302;50.206;8.196;2023-06-01T13:57:47;2.77;;;2.67;;
635;SDS011;302;50.206;8.196;2023-06-01T14:00:13;2.80;;;2.60;;
635;SDS011;302;50.206;8.196;2023-06-01T14:02:39;3.13;;;2.92;;
635;SDS011;302;50.206;8.196;2023-06-01T14:05:05;3.38;;;3.13;;
635;SDS011;302;50.206;8.196;2023-06-01T14:07:33;2.88;;;2.67;;
635;SDS011;302;50.206;8.196;2023-06-01T14:09:58;3.53;;;3.30;;
635;SDS011;302;50.206;8.196;2023-06-01T14:12:24;3.28;;;3.08;;
635;SDS011;302;50.206;8.196;2023-06-01T14:14:50;3.25;;;3.03;;
635;SDS011;302;50.206;8.196;2023-06-01T14:17:16;3.80;;;3.60;;
635;SDS011;302;50.206;8.196;2023-06-01T14:19:41;5.38;;;4.88;;
635;SDS011;302;50.206;8.196;2023-06-01T14:22:07;4.00;;;3.80;;
635;SDS011;302;50.206;8.196;2023-06-01T14:24:32;5.35;;;3.67;;
635;SDS011;302;50.206;8.196;2023-06-01T14:26:57;4.05;;;3.70;;
635;SDS011;302;50.206;8.196;2023-06-01T14:29:23;7.65;;;4.03;;
635;SDS011;302;50.206;8.196;2023-06-01T14:31:49;18.67;;;5.28;;
635;SDS011;302;50.206;8.196;2023-06-01T14:34:14;5.22;;;4.82;;
635;SDS011;302;50.206;8.196;2023-06-01T14:36:40;5.10;;;4.70;;
635;SDS011;302;50.206;8.196;2023-06-01T14:39:06;5.53;;;5.00;;
635;SDS011;302;50.206;8.196;2023-06-01T14:41:31;5.65;;;5.25;;
635;SDS011;302;50.206;8.196;2023-06-01T14:43:57;5.07;;;4.78;;
635;SDS011;302;50.206;8.196;2023-06-01T14:46:22;6.43;;;5.55;;
635;SDS011;302;50.206;8.196;2023-06-01T14:48:48;6.15;;;5.75;;
635;SDS011;302;50.206;8.196;2023-06-01T14:51:14;5.80;;;5.40;;
635;SDS011;302;50.206;8.196;2023-06-01T14:53:40;6.85;;;5.38;;
635;SDS011;302;50.206;8.196;2023-06-01T14:56:06;5.50;;;5.10;;
635;SDS011;302;50.206;8.196;2023-06-01T14:58:32;5.47;;;5.05;;
635;SDS011;302;50.206;8.196;2023-06-01T15:00:59;5.97;;;5.57;;
635;SDS011;302;50.206;8.196;2023-06-01T15:03:25;6.47;;;5.88;;
635;SDS011;302;50.206;8.196;2023-06-01T15:05:54;6.15;;;5.65;;
635;SDS011;302;50.206;8.196;2023-06-01T15:08:21;10.90;;;6.33;;
635;SDS011;302;50.206;8.196;2023-06-01T15:10:49;11.13;;;6.33;;
635;SDS011;302;50.206;8.196;2023-06-01T15:13:15;6.93;;;6.43;;
635;SDS011;302;50.206;8.196;2023-06-01T15:15:41;6.83;;;6.40;;
635;SDS011;302;50.206;8.196;2023-06-01T15:18:07;6.60;;;6.10;;
635;SDS011;302;50.206;8.196;2023-06-01T15:20:33;6.03;;;5.53;;
635;SDS011;302;50.206;8.196;2023-06-01T15:22:59;6.20;;;5.80;;
635;SDS011;302;50.206;8.196;2023-06-01T15:25:24;6.77;;;6.23;;
635;SDS011;302;50.206;8.196;2023-06-01T15:27:50;6.97;;;6.13;;
635;SDS011;302;50.206;8.196;2023-06-01T15:30:16;6.30;;;5.80;;
635;SDS011;302;50.206;8.196;2023-06-01T15:32:42;7.17;;;6.47;;
635;SDS011;302;50.206;8.196;2023-06-01T15:35:08;8.00;;;6.77;;
635;SDS011;302;50.206;8.196;2023-06-01T15:37:34;7.60;;;7.00;;
635;SDS011;302;50.206;8.196;2023-06-01T15:40:00;7.57;;;6.97;;
635;SDS011;302;50.206;8.196;2023-06-01T15:42:27;8.90;;;8.10;;
635;SDS011;302;50.206;8.196;2023-06-01T15:44:54;7.83;;;7.23;;
635;SDS011;302;50.206;8.196;2023-06-01T15:47:20;8.57;;;7.77;;
635;SDS011;302;50.206;8.196;2023-06-01T15:49:49;8.10;;;7.40;;
635;SDS011;302;50.206;8.196;2023-06-01T15:52:20;7.10;;;6.40;;
635;SDS011;302;50.206;8.196;2023-06-01T15:54:47;7.70;;;7.10;;
635;SDS011;302;50.206;8.196;2023-06-01T15:57:12;8.23;;;7.63;;
635;SDS011;302;50.206;8.196;2023-06-01T15:59:39;7.20;;;6.50;;
635;SDS011;302;50.206;8.196;2023-06-01T16:02:05;7.50;;;6.73;;
635;SDS011;302;50.206;8.196;2023-06-01T16:04:30;11.00;;;7.40;;
635;SDS011;302;50.206;8.196;2023-06-01T16:06:57;7.47;;;6.80;;
635;SDS011;302;50.206;8.196;2023-06-01T16:12:34;8.73;;;7.97;;
635;SDS011;302;50.206;8.196;2023-06-01T16:15:00;9.10;;;8.30;;
635;SDS011;302;50.206;8.196;2023-06-01T16:17:25;9.33;;;8.50;;
635;SDS011;302;50.206;8.196;2023-06-01T16:19:52;9.93;;;9.07;;
635;SDS011;302;50.206;8.196;2023-06-01T16:22:19;10.60;;;9.53;;
635;SDS011;302;50.206;8.196;2023-06-01T16:24:45;9.90;;;8.97;;
635;SDS011;302;50.206;8.196;2023-06-01T16:27:11;8.77;;;7.97;;
635;SDS011;302;50.206;8.196;2023-06-01T16:29:39;9.63;;;8.73;;
635;SDS011;302;50.206;8.196;2023-06-01T16:32:05;10.20;;;9.20;;
635;SDS011;302;50.206;8.196;2023-06-01T16:34:31;10.97;;;9.80;;
635;SDS011;302;50.206;8.196;2023-06-01T16:36:58;11.37;;;10.30;;
635;SDS011;302;50.206;8.196;2023-06-01T16:39:24;11.77;;;9.80;;
635;SDS011;302;50.206;8.196;2023-06-01T16:41:50;11.70;;;10.70;;
635;SDS011;302;50.206;8.196;2023-06-01T16:44:16;19.70;;;11.23;;
635;SDS011;302;50.206;8.196;2023-06-01T16:46:42;17.83;;;11.27;;
635;SDS011;302;50.206;8.196;2023-06-01T16:49:08;13.80;;;10.40;;
635;SDS011;302;50.206;8.196;2023-06-01T16:51:34;11.10;;;10.10;;
635;SDS011;302;50.206;8.196;2023-06-01T16:54:01;11.17;;;9.97;;
635;SDS011;302;50.206;8.196;2023-06-01T16:56:27;10.80;;;9.90;;
635;SDS011;302;50.206;8.196;2023-06-01T16:58:53;11.27;;;10.37;;
635;SDS011;302;50.206;8.196;2023-06-01T17:01:19;10.40;;;9.50;;
635;SDS011;302;50.206;8.196;2023-06-01T17:03:49;10.00;;;9.00;;
635;SDS011;302;50.206;8.196;2023-06-01T17:06:35;10.20;;;9.30;;
635;SDS011;302;50.206;8.196;2023-06-01T17:09:01;10.40;;;9.50;;
635;SDS011;302;50.206;8.196;2023-06-01T17:11:27;10.17;;;9.17;;
635;SDS011;302;50.206;8.196;2023-06-01T17:13:52;8.67;;;7.97;;
635;SDS011;302;50.206;8.196;2023-06-01T17:16:20;9.90;;;9.10;;
635;SDS011;302;50.206;8.196;2023-06-01T17:21:56;8.30;;;7.50;;
635;SDS011;302;50.206;8.196;2023-06-01T17:24:29;9.50;;;8.70;;
635;SDS011;302;50.206;8.196;2023-06-01T17:30:04;9.53;;;8.63;;
635;SDS011;302;50.206;8.196;2023-06-01T17:32:34;9.23;;;7.60;;
635;SDS011;302;50.206;8.196;2023-06-01T17:35:09;7.63;;;7.00;;
635;SDS011;302;50.206;8.196;2023-06-01T17:37:36;8.30;;;7.50;;